sensor_id;sensor_type;location;lat;lon;timestamp;temperature;humidity
3298;DHT22;1661;53.572;10.174;2024-03-08T00:00:22;3.90;81.00
3298;DHT22;1661;53.572;10.174;2024-03-08T00:02:49;3.80;81.20
3298;DHT22;1661;53.572;10.174;2024-03-08T00:05:17;3.80;81.30
3298;DHT22;1661;53.572;10.174;2024-03-08T00:07:44;3.80;81.40
3298;DHT22;1661;53.572;10.174;2024-03-08T00:10:12;3.80;81.40
3298;DHT22;1661;53.572;10.174;2024-03-08T00:12:40;3.80;81.50
3298;DHT22;1661;53.572;10.174;2024-03-08T00:15:09;3.80;81.50
3298;DHT22;1661;53.572;10.174;2024-03-08T00:17:36;3.80;81.60
3298;DHT22;1661;53.572;10.174;2024-03-08T00:20:04;3.80;81.60
3298;DHT22;1661;53.572;10.174;2024-03-08T00:22:34;3.70;81.60
3298;DHT22;1661;53.572;10.174;2024-03-08T00:25:01;3.70;81.70
3298;DHT22;1661;53.572;10.174;2024-03-08T00:27:28;3.70;81.70
3298;DHT22;1661;53.572;10.174;2024-03-08T00:29:56;3.70;81.60
3298;DHT22;1661;53.572;10.174;2024-03-08T00:32:24;3.70;81.70
3298;DHT22;1661;53.572;10.174;2024-03-08T00:34:52;3.70;81.80
3298;DHT22;1661;53.572;10.174;2024-03-08T00:37:19;3.70;81.90
3298;DHT22;1661;53.572;10.174;2024-03-08T00:39:50;3.70;81.90
3298;DHT22;1661;53.572;10.174;2024-03-08T00:42:17;3.70;82.00
3298;DHT22;1661;53.572;10.174;2024-03-08T00:44:44;3.60;81.80
3298;DHT22;1661;53.572;10.174;2024-03-08T00:47:12;3.60;81.80
3298;DHT22;1661;53.572;10.174;2024-03-08T00:49:41;3.50;82.00
3298;DHT22;1661;53.572;10.174;2024-03-08T00:52:11;3.40;82.30
3298;DHT22;1661;53.572;10.174;2024-03-08T00:54:38;3.50;82.40
3298;DHT22;1661;53.572;10.174;2024-03-08T00:57:05;3.40;82.30
3298;DHT22;1661;53.572;10.174;2024-03-08T00:59:32;3.40;82.40
3298;DHT22;1661;53.572;10.174;2024-03-08T01:01:59;3.40;82.40
3298;DHT22;1661;53.572;10.174;2024-03-08T01:04:26;3.40;82.60
3298;DHT22;1661;53.572;10.174;2024-03-08T01:06:55;3.40;82.60
3298;DHT22;1661;53.572;10.174;2024-03-08T01:09:22;3.30;82.70
3298;DHT22;1661;53.572;10.174;2024-03-08T01:11:49;3.20;82.90
3298;DHT22;1661;53.572;10.174;2024-03-08T01:14:19;3.20;83.10
3298;DHT22;1661;53.572;10.174;2024-03-08T01:16:47;3.20;83.30
3298;DHT22;1661;53.572;10.174;2024-03-08T01:19:14;3.30;83.10
3298;DHT22;1661;53.572;10.174;2024-03-08T01:21:42;3.30;83.20
3298;DHT22;1661;53.572;10.174;2024-03-08T01:24:13;3.20;83.10
3298;DHT22;1661;53.572;10.174;2024-03-08T01:26:42;3.20;83.20
3298;DHT22;1661;53.572;10.174;2024-03-08T01:29:13;3.20;83.30
3298;DHT22;1661;53.572;10.174;2024-03-08T01:31:40;3.10;83.40
3298;DHT22;1661;53.572;10.174;2024-03-08T01:34:06;3.10;83.50
3298;DHT22;1661;53.572;10.174;2024-03-08T01:36:33;3.10;83.50
3298;DHT22;1661;53.572;10.174;2024-03-08T01:39:03;3.10;83.50
3298;DHT22;1661;53.572;10.174;2024-03-08T01:41:34;3.10;83.60
3298;DHT22;1661;53.572;10.174;2024-03-08T01:44:05;3.10;83.60
3298;DHT22;1661;53.572;10.174;2024-03-08T01:46:33;3.10;83.70
3298;DHT22;1661;53.572;10.174;2024-03-08T01:49:00;3.10;83.60
3298;DHT22;1661;53.572;10.174;2024-03-08T01:51:30;3.20;83.60
3298;DHT22;1661;53.572;10.174;2024-03-08T01:53:57;3.10;83.50
3298;DHT22;1661;53.572;10.174;2024-03-08T01:56:25;3.10;83.40
3298;DHT22;1661;53.572;10.174;2024-03-08T01:58:54;3.10;83.40
3298;DHT22;1661;53.572;10.174;2024-03-08T02:01:21;3.10;83.40
3298;DHT22;1661;53.572;10.174;2024-03-08T02:03:49;3.10;83.40
3298;DHT22;1661;53.572;10.174;2024-03-08T02:06:16;3.10;83.30
3298;DHT22;1661;53.572;10.174;2024-03-08T02:08:43;3.10;83.30
3298;DHT22;1661;53.572;10.174;2024-03-08T02:11:10;3.10;83.40
3298;DHT22;1661;53.572;10.174;2024-03-08T02:13:37;3.10;83.30
3298;DHT22;1661;53.572;10.174;2024-03-08T02:16:06;3.10;83.30
3298;DHT22;1661;53.572;10.174;2024-03-08T02:18:34;3.10;83.20
3298;DHT22;1661;53.572;10.174;2024-03-08T02:21:03;3.10;83.10
3298;DHT22;1661;53.572;10.174;2024-03-08T02:23:30;3.10;83.20
3298;DHT22;1661;53.572;10.174;2024-03-08T02:26:01;3.00;83.20
3298;DHT22;1661;53.572;10.174;2024-03-08T02:28:30;3.00;83.10
3298;DHT22;1661;53.572;10.174;2024-03-08T02:31:00;3.00;83.10
3298;DHT22;1661;53.572;10.174;2024-03-08T02:33:34;3.00;83.10
3298;DHT22;1661;53.572;10.174;2024-03-08T02:36:05;3.00;83.10
3298;DHT22;1661;53.572;10.174;2024-03-08T02:38:36;3.00;83.10
3298;DHT22;1661;53.572;10.174;2024-03-08T02:41:03;3.00;83.20
3298;DHT22;1661;53.572;10.174;2024-03-08T02:43:33;3.00;83.20
3298;DHT22;1661;53.572;10.174;2024-03-08T02:46:00;2.90;83.20
3298;DHT22;1661;53.572;10.174;2024-03-08T02:48:26;2.90;83.30
3298;DHT22;1661;53.572;10.174;2024-03-08T02:50:53;2.90;83.30
3298;DHT22;1661;53.572;10.174;2024-03-08T02:53:21;2.90;83.30
3298;DHT22;1661;53.572;10.174;2024-03-08T02:55:50;2.90;83.20
3298;DHT22;1661;53.572;10.174;2024-03-08T02:58:16;2.90;83.10
3298;DHT22;1661;53.572;10.174;2024-03-08T03:00:44;2.90;83.00
3298;DHT22;1661;53.572;10.174;2024-03-08T03:03:10;2.90;83.00
3298;DHT22;1661;53.572;10.174;2024-03-08T03:05:37;2.90;83.00
3298;DHT22;1661;53.572;10.174;2024-03-08T03:08:06;2.90;83.00
3298;DHT22;1661;53.572;10.174;2024-03-08T03:10:35;2.80;83.00
3298;DHT22;1661;53.572;10.174;2024-03-08T03:13:02;2.80;82.90
3298;DHT22;1661;53.572;10.174;2024-03-08T03:15:30;2.80;83.10
3298;DHT22;1661;53.572;10.174;2024-03-08T03:17:56;2.80;83.20
3298;DHT22;1661;53.572;10.174;2024-03-08T03:20:23;2.80;83.30
3298;DHT22;1661;53.572;10.174;2024-03-08T03:22:52;2.70;83.30
3298;DHT22;1661;53.572;10.174;2024-03-08T03:25:31;2.70;83.40
3298;DHT22;1661;53.572;10.174;2024-03-08T03:28:02;2.70;83.50
3298;DHT22;1661;53.572;10.174;2024-03-08T03:30:32;2.70;83.50
3298;DHT22;1661;53.572;10.174;2024-03-08T03:33:03;2.70;83.50
3298;DHT22;1661;53.572;10.174;2024-03-08T03:35:32;2.70;83.60
3298;DHT22;1661;53.572;10.174;2024-03-08T03:37:59;2.70;83.60
3298;DHT22;1661;53.572;10.174;2024-03-08T03:40:32;2.70;83.60
3298;DHT22;1661;53.572;10.174;2024-03-08T03:43:03;2.70;83.60
3298;DHT22;1661;53.572;10.174;2024-03-08T03:45:32;2.60;83.50
3298;DHT22;1661;53.572;10.174;2024-03-08T03:48:01;2.60;83.60
3298;DHT22;1661;53.572;10.174;2024-03-08T03:50:28;2.60;83.60
3298;DHT22;1661;53.572;10.174;2024-03-08T03:52:55;2.60;83.60
3298;DHT22;1661;53.572;10.174;2024-03-08T03:55:22;2.60;83.50
3298;DHT22;1661;53.572;10.174;2024-03-08T03:57:49;2.60;83.50
3298;DHT22;1661;53.572;10.174;2024-03-08T04:00:17;2.60;83.50
3298;DHT22;1661;53.572;10.174;2024-03-08T04:02:44;2.60;83.60
3298;DHT22;1661;53.572;10.174;2024-03-08T04:05:12;2.50;83.60
3298;DHT22;1661;53.572;10.174;2024-03-08T04:07:39;2.50;83.50
3298;DHT22;1661;53.572;10.174;2024-03-08T04:10:11;2.50;83.40
3298;DHT22;1661;53.572;10.174;2024-03-08T04:12:38;2.50;83.50
3298;DHT22;1661;53.572;10.174;2024-03-08T04:15:05;2.50;83.50
3298;DHT22;1661;53.572;10.174;2024-03-08T04:17:37;2.50;83.50
3298;DHT22;1661;53.572;10.174;2024-03-08T04:20:05;2.40;83.60
3298;DHT22;1661;53.572;10.174;2024-03-08T04:22:35;2.40;83.60
3298;DHT22;1661;53.572;10.174;2024-03-08T04:25:05;2.40;83.60
3298;DHT22;1661;53.572;10.174;2024-03-08T04:27:33;2.40;83.60
3298;DHT22;1661;53.572;10.174;2024-03-08T04:30:00;2.40;83.70
3298;DHT22;1661;53.572;10.174;2024-03-08T04:32:26;2.40;83.80
3298;DHT22;1661;53.572;10.174;2024-03-08T04:34:56;2.40;83.70
3298;DHT22;1661;53.572;10.174;2024-03-08T04:37:26;2.30;83.80
3298;DHT22;1661;53.572;10.174;2024-03-08T04:39:55;2.30;83.70
3298;DHT22;1661;53.572;10.174;2024-03-08T04:42:22;2.30;83.80
3298;DHT22;1661;53.572;10.174;2024-03-08T04:44:49;2.30;83.70
3298;DHT22;1661;53.572;10.174;2024-03-08T04:47:15;2.30;83.80
3298;DHT22;1661;53.572;10.174;2024-03-08T04:49:43;2.20;83.80
3298;DHT22;1661;53.572;10.174;2024-03-08T04:52:11;2.20;83.90
3298;DHT22;1661;53.572;10.174;2024-03-08T04:54:38;2.20;84.00
3298;DHT22;1661;53.572;10.174;2024-03-08T04:57:05;2.20;83.90
3298;DHT22;1661;53.572;10.174;2024-03-08T04:59:32;2.20;84.00
3298;DHT22;1661;53.572;10.174;2024-03-08T05:01:59;2.20;84.00
3298;DHT22;1661;53.572;10.174;2024-03-08T05:04:26;2.20;83.90
3298;DHT22;1661;53.572;10.174;2024-03-08T05:06:54;2.20;84.00
3298;DHT22;1661;53.572;10.174;2024-03-08T05:09:22;2.20;84.10
3298;DHT22;1661;53.572;10.174;2024-03-08T05:11:49;2.20;84.20
3298;DHT22;1661;53.572;10.174;2024-03-08T05:14:16;2.20;84.20
3298;DHT22;1661;53.572;10.174;2024-03-08T05:16:45;2.20;84.30
3298;DHT22;1661;53.572;10.174;2024-03-08T05:19:14;2.20;84.30
3298;DHT22;1661;53.572;10.174;2024-03-08T05:21:42;2.10;84.30
3298;DHT22;1661;53.572;10.174;2024-03-08T05:24:09;2.10;84.40
3298;DHT22;1661;53.572;10.174;2024-03-08T05:26:37;2.10;84.40
3298;DHT22;1661;53.572;10.174;2024-03-08T05:29:04;2.10;84.40
3298;DHT22;1661;53.572;10.174;2024-03-08T05:31:37;2.10;84.40
3298;DHT22;1661;53.572;10.174;2024-03-08T05:34:05;2.10;84.60
3298;DHT22;1661;53.572;10.174;2024-03-08T05:36:35;2.10;84.60
3298;DHT22;1661;53.572;10.174;2024-03-08T05:39:02;2.00;84.60
3298;DHT22;1661;53.572;10.174;2024-03-08T05:41:31;2.00;84.60
3298;DHT22;1661;53.572;10.174;2024-03-08T05:44:05;2.00;84.70
3298;DHT22;1661;53.572;10.174;2024-03-08T05:46:32;2.00;84.70
3298;DHT22;1661;53.572;10.174;2024-03-08T05:48:58;2.00;84.70
3298;DHT22;1661;53.572;10.174;2024-03-08T05:51:25;2.00;84.60
3298;DHT22;1661;53.572;10.174;2024-03-08T05:53:52;2.00;84.70
3298;DHT22;1661;53.572;10.174;2024-03-08T05:56:22;2.00;84.80
3298;DHT22;1661;53.572;10.174;2024-03-08T05:58:52;2.00;84.80
3298;DHT22;1661;53.572;10.174;2024-03-08T06:01:23;2.00;84.90
3298;DHT22;1661;53.572;10.174;2024-03-08T06:03:50;2.00;84.90
3298;DHT22;1661;53.572;10.174;2024-03-08T06:06:17;2.00;85.00
3298;DHT22;1661;53.572;10.174;2024-03-08T06:08:47;2.00;84.90
3298;DHT22;1661;53.572;10.174;2024-03-08T06:11:14;2.00;85.00
3298;DHT22;1661;53.572;10.174;2024-03-08T06:13:43;2.00;85.00
3298;DHT22;1661;53.572;10.174;2024-03-08T06:16:09;2.00;85.00
3298;DHT22;1661;53.572;10.174;2024-03-08T06:18:38;2.00;85.00
3298;DHT22;1661;53.572;10.174;2024-03-08T06:21:07;2.00;84.90
3298;DHT22;1661;53.572;10.174;2024-03-08T06:23:35;2.10;84.90
3298;DHT22;1661;53.572;10.174;2024-03-08T06:26:03;2.10;84.90
3298;DHT22;1661;53.572;10.174;2024-03-08T06:28:30;2.10;84.90
3298;DHT22;1661;53.572;10.174;2024-03-08T06:30:58;2.10;84.90
3298;DHT22;1661;53.572;10.174;2024-03-08T06:33:24;2.00;84.90
3298;DHT22;1661;53.572;10.174;2024-03-08T06:35:53;2.10;85.00
3298;DHT22;1661;53.572;10.174;2024-03-08T06:38:22;2.10;85.00
3298;DHT22;1661;53.572;10.174;2024-03-08T06:40:49;2.10;85.20
3298;DHT22;1661;53.572;10.174;2024-03-08T06:43:16;2.20;85.20
3298;DHT22;1661;53.572;10.174;2024-03-08T06:45:44;2.20;85.10
3298;DHT22;1661;53.572;10.174;2024-03-08T06:48:16;2.20;85.00
3298;DHT22;1661;53.572;10.174;2024-03-08T06:50:46;2.30;84.90
3298;DHT22;1661;53.572;10.174;2024-03-08T06:53:14;2.30;84.90
3298;DHT22;1661;53.572;10.174;2024-03-08T06:55:44;2.40;84.90
3298;DHT22;1661;53.572;10.174;2024-03-08T06:58:11;2.40;84.90
3298;DHT22;1661;53.572;10.174;2024-03-08T07:00:38;2.50;84.70
3298;DHT22;1661;53.572;10.174;2024-03-08T07:03:07;2.60;84.60
3298;DHT22;1661;53.572;10.174;2024-03-08T07:05:38;2.60;84.50
3298;DHT22;1661;53.572;10.174;2024-03-08T07:08:05;2.60;84.30
3298;DHT22;1661;53.572;10.174;2024-03-08T07:10:36;2.60;84.30
3298;DHT22;1661;53.572;10.174;2024-03-08T07:13:07;2.70;84.30
3298;DHT22;1661;53.572;10.174;2024-03-08T07:15:34;2.70;84.20
3298;DHT22;1661;53.572;10.174;2024-03-08T07:18:01;2.80;84.20
3298;DHT22;1661;53.572;10.174;2024-03-08T07:20:28;2.80;84.10
3298;DHT22;1661;53.572;10.174;2024-03-08T07:22:55;2.90;83.90
3298;DHT22;1661;53.572;10.174;2024-03-08T07:25:22;3.00;83.80
3298;DHT22;1661;53.572;10.174;2024-03-08T07:27:51;3.10;83.60
3298;DHT22;1661;53.572;10.174;2024-03-08T07:30:24;3.20;83.40
3298;DHT22;1661;53.572;10.174;2024-03-08T07:33:09;3.30;83.20
3298;DHT22;1661;53.572;10.174;2024-03-08T07:35:37;3.40;82.60
3298;DHT22;1661;53.572;10.174;2024-03-08T07:38:04;3.40;82.20
3298;DHT22;1661;53.572;10.174;2024-03-08T07:40:31;3.50;82.00
3298;DHT22;1661;53.572;10.174;2024-03-08T07:43:00;3.50;81.90
3298;DHT22;1661;53.572;10.174;2024-03-08T07:45:27;3.60;82.10
3298;DHT22;1661;53.572;10.174;2024-03-08T07:47:56;3.70;81.70
3298;DHT22;1661;53.572;10.174;2024-03-08T07:50:23;3.80;81.30
3298;DHT22;1661;53.572;10.174;2024-03-08T07:52:49;3.90;81.10
3298;DHT22;1661;53.572;10.174;2024-03-08T07:55:16;3.90;80.60
3298;DHT22;1661;53.572;10.174;2024-03-08T07:57:43;3.90;80.50
3298;DHT22;1661;53.572;10.174;2024-03-08T08:00:12;4.00;80.30
3298;DHT22;1661;53.572;10.174;2024-03-08T08:02:43;4.00;80.30
3298;DHT22;1661;53.572;10.174;2024-03-08T08:05:11;4.10;79.90
3298;DHT22;1661;53.572;10.174;2024-03-08T08:07:43;4.20;79.40
3298;DHT22;1661;53.572;10.174;2024-03-08T08:10:10;4.30;79.20
3298;DHT22;1661;53.572;10.174;2024-03-08T08:12:47;4.50;79.20
3298;DHT22;1661;53.572;10.174;2024-03-08T08:15:15;4.70;78.50
3298;DHT22;1661;53.572;10.174;2024-03-08T08:17:42;4.80;78.10
3298;DHT22;1661;53.572;10.174;2024-03-08T08:20:10;5.00;77.60
3298;DHT22;1661;53.572;10.174;2024-03-08T08:22:37;5.10;77.10
3298;DHT22;1661;53.572;10.174;2024-03-08T08:25:05;5.20;76.30
3298;DHT22;1661;53.572;10.174;2024-03-08T08:27:35;5.30;76.00
3298;DHT22;1661;53.572;10.174;2024-03-08T08:30:06;5.40;75.40
3298;DHT22;1661;53.572;10.174;2024-03-08T08:32:38;5.40;74.90
3298;DHT22;1661;53.572;10.174;2024-03-08T08:35:06;5.50;75.10
3298;DHT22;1661;53.572;10.174;2024-03-08T08:37:34;5.60;74.90
3298;DHT22;1661;53.572;10.174;2024-03-08T08:40:03;5.80;74.80
3298;DHT22;1661;53.572;10.174;2024-03-08T08:42:34;6.00;74.90
3298;DHT22;1661;53.572;10.174;2024-03-08T08:45:01;6.20;74.70
3298;DHT22;1661;53.572;10.174;2024-03-08T08:47:33;6.30;73.30
3298;DHT22;1661;53.572;10.174;2024-03-08T08:50:02;6.40;73.00
3298;DHT22;1661;53.572;10.174;2024-03-08T08:52:30;6.60;73.20
3298;DHT22;1661;53.572;10.174;2024-03-08T08:54:57;6.70;71.60
3298;DHT22;1661;53.572;10.174;2024-03-08T08:57:24;6.80;71.70
3298;DHT22;1661;53.572;10.174;2024-03-08T08:59:51;6.90;70.70
3298;DHT22;1661;53.572;10.174;2024-03-08T09:02:21;6.90;70.80
3298;DHT22;1661;53.572;10.174;2024-03-08T09:04:51;7.20;71.00
3298;DHT22;1661;53.572;10.174;2024-03-08T09:07:19;7.40;70.70
3298;DHT22;1661;53.572;10.174;2024-03-08T09:09:47;7.70;70.50
3298;DHT22;1661;53.572;10.174;2024-03-08T09:12:14;7.90;68.80
3298;DHT22;1661;53.572;10.174;2024-03-08T09:14:42;8.10;68.50
3298;DHT22;1661;53.572;10.174;2024-03-08T09:17:11;8.20;67.90
3298;DHT22;1661;53.572;10.174;2024-03-08T09:19:39;8.30;66.80
3298;DHT22;1661;53.572;10.174;2024-03-08T09:22:06;8.40;66.20
3298;DHT22;1661;53.572;10.174;2024-03-08T09:24:40;8.40;65.10
3298;DHT22;1661;53.572;10.174;2024-03-08T09:27:08;8.50;66.00
3298;DHT22;1661;53.572;10.174;2024-03-08T09:29:38;8.70;64.90
3298;DHT22;1661;53.572;10.174;2024-03-08T09:32:08;8.80;64.00
3298;DHT22;1661;53.572;10.174;2024-03-08T09:34:37;8.80;64.10
3298;DHT22;1661;53.572;10.174;2024-03-08T09:37:03;9.00;63.20
3298;DHT22;1661;53.572;10.174;2024-03-08T09:39:30;9.20;63.70
3298;DHT22;1661;53.572;10.174;2024-03-08T09:42:00;9.40;63.90
3298;DHT22;1661;53.572;10.174;2024-03-08T09:44:27;9.70;64.00
3298;DHT22;1661;53.572;10.174;2024-03-08T09:46:54;9.80;61.70
3298;DHT22;1661;53.572;10.174;2024-03-08T09:49:21;9.60;61.30
3298;DHT22;1661;53.572;10.174;2024-03-08T09:51:50;9.70;62.10
3298;DHT22;1661;53.572;10.174;2024-03-08T09:54:18;9.70;61.50
3298;DHT22;1661;53.572;10.174;2024-03-08T09:56:48;9.90;62.30
3298;DHT22;1661;53.572;10.174;2024-03-08T09:59:18;10.00;62.50
3298;DHT22;1661;53.572;10.174;2024-03-08T10:02:03;10.20;60.70
3298;DHT22;1661;53.572;10.174;2024-03-08T10:04:30;10.50;61.30
3298;DHT22;1661;53.572;10.174;2024-03-08T10:06:57;10.60;58.80
3298;DHT22;1661;53.572;10.174;2024-03-08T10:09:24;10.60;57.50
3298;DHT22;1661;53.572;10.174;2024-03-08T10:11:53;10.70;57.50
3298;DHT22;1661;53.572;10.174;2024-03-08T10:14:23;10.80;56.70
3298;DHT22;1661;53.572;10.174;2024-03-08T10:16:52;10.80;55.70
3298;DHT22;1661;53.572;10.174;2024-03-08T10:19:19;10.70;55.50
3298;DHT22;1661;53.572;10.174;2024-03-08T10:21:50;10.70;54.50
3298;DHT22;1661;53.572;10.174;2024-03-08T10:24:19;10.70;53.90
3298;DHT22;1661;53.572;10.174;2024-03-08T10:26:46;10.70;53.50
3298;DHT22;1661;53.572;10.174;2024-03-08T10:29:15;10.70;54.20
3298;DHT22;1661;53.572;10.174;2024-03-08T10:31:44;10.90;53.90
3298;DHT22;1661;53.572;10.174;2024-03-08T10:34:11;10.90;53.80
3298;DHT22;1661;53.572;10.174;2024-03-08T10:36:39;11.10;55.30
3298;DHT22;1661;53.572;10.174;2024-03-08T10:39:17;11.30;53.70
3298;DHT22;1661;53.572;10.174;2024-03-08T10:41:52;11.50;53.50
3298;DHT22;1661;53.572;10.174;2024-03-08T10:44:32;11.60;52.00
3298;DHT22;1661;53.572;10.174;2024-03-08T10:47:15;11.70;52.60
3298;DHT22;1661;53.572;10.174;2024-03-08T10:49:51;11.90;51.30
3298;DHT22;1661;53.572;10.174;2024-03-08T10:52:21;11.80;50.80
3298;DHT22;1661;53.572;10.174;2024-03-08T10:54:48;11.80;51.70
3298;DHT22;1661;53.572;10.174;2024-03-08T10:57:18;11.90;52.30
3298;DHT22;1661;53.572;10.174;2024-03-08T10:59:49;12.10;50.80
3298;DHT22;1661;53.572;10.174;2024-03-08T11:02:19;11.90;50.00
3298;DHT22;1661;53.572;10.174;2024-03-08T11:04:49;12.00;50.50
3298;DHT22;1661;53.572;10.174;2024-03-08T11:07:17;11.90;49.30
3298;DHT22;1661;53.572;10.174;2024-03-08T11:09:46;11.80;50.00
3298;DHT22;1661;53.572;10.174;2024-03-08T11:12:24;11.90;51.40
3298;DHT22;1661;53.572;10.174;2024-03-08T11:14:53;12.10;50.60
3298;DHT22;1661;53.572;10.174;2024-03-08T11:17:42;12.20;49.50
3298;DHT22;1661;53.572;10.174;2024-03-08T11:20:11;12.40;49.90
3298;DHT22;1661;53.572;10.174;2024-03-08T11:22:49;12.60;49.20
3298;DHT22;1661;53.572;10.174;2024-03-08T11:25:36;12.70;48.60
3298;DHT22;1661;53.572;10.174;2024-03-08T11:28:10;12.80;48.60
3298;DHT22;1661;53.572;10.174;2024-03-08T11:30:42;13.10;49.90
3298;DHT22;1661;53.572;10.174;2024-03-08T11:33:13;13.30;49.10
3298;DHT22;1661;53.572;10.174;2024-03-08T11:35:40;13.30;48.10
3298;DHT22;1661;53.572;10.174;2024-03-08T11:38:08;13.30;46.50
3298;DHT22;1661;53.572;10.174;2024-03-08T11:40:36;13.30;47.30
3298;DHT22;1661;53.572;10.174;2024-03-08T11:43:03;13.30;45.60
3298;DHT22;1661;53.572;10.174;2024-03-08T11:45:35;13.00;46.10
3298;DHT22;1661;53.572;10.174;2024-03-08T11:48:03;13.10;46.60
3298;DHT22;1661;53.572;10.174;2024-03-08T11:50:34;13.20;46.70
3298;DHT22;1661;53.572;10.174;2024-03-08T11:53:02;13.30;46.50
3298;DHT22;1661;53.572;10.174;2024-03-08T11:55:29;13.00;45.40
3298;DHT22;1661;53.572;10.174;2024-03-08T11:58:04;13.00;45.60
3298;DHT22;1661;53.572;10.174;2024-03-08T12:00:33;13.00;47.00
3298;DHT22;1661;53.572;10.174;2024-03-08T12:03:05;13.10;46.90
3298;DHT22;1661;53.572;10.174;2024-03-08T12:05:36;13.30;47.30
3298;DHT22;1661;53.572;10.174;2024-03-08T12:08:04;13.40;46.30
3298;DHT22;1661;53.572;10.174;2024-03-08T12:10:35;13.50;45.60
3298;DHT22;1661;53.572;10.174;2024-03-08T12:13:03;13.50;46.30
3298;DHT22;1661;53.572;10.174;2024-03-08T12:15:37;13.60;46.80
3298;DHT22;1661;53.572;10.174;2024-03-08T12:18:04;13.70;45.50
3298;DHT22;1661;53.572;10.174;2024-03-08T12:20:32;13.80;45.60
3298;DHT22;1661;53.572;10.174;2024-03-08T12:23:00;14.00;48.00
3298;DHT22;1661;53.572;10.174;2024-03-08T12:25:30;14.30;46.70
3298;DHT22;1661;53.572;10.174;2024-03-08T12:28:07;14.40;44.90
3298;DHT22;1661;53.572;10.174;2024-03-08T12:30:43;14.50;44.60
3298;DHT22;1661;53.572;10.174;2024-03-08T12:33:14;14.40;43.40
3298;DHT22;1661;53.572;10.174;2024-03-08T12:35:41;14.30;43.10
3298;DHT22;1661;53.572;10.174;2024-03-08T12:38:17;14.20;43.10
3298;DHT22;1661;53.572;10.174;2024-03-08T12:40:44;14.20;43.60
3298;DHT22;1661;53.572;10.174;2024-03-08T12:43:11;14.30;44.70
3298;DHT22;1661;53.572;10.174;2024-03-08T12:45:41;14.20;43.40
3298;DHT22;1661;53.572;10.174;2024-03-08T12:48:13;14.30;43.90
3298;DHT22;1661;53.572;10.174;2024-03-08T12:50:40;14.40;45.10
3298;DHT22;1661;53.572;10.174;2024-03-08T12:53:09;14.30;44.20
3298;DHT22;1661;53.572;10.174;2024-03-08T12:55:37;14.20;46.60
3298;DHT22;1661;53.572;10.174;2024-03-08T12:58:04;14.30;45.20
3298;DHT22;1661;53.572;10.174;2024-03-08T13:00:32;14.50;44.60
3298;DHT22;1661;53.572;10.174;2024-03-08T13:03:04;14.60;45.30
3298;DHT22;1661;53.572;10.174;2024-03-08T13:05:32;14.70;43.70
3298;DHT22;1661;53.572;10.174;2024-03-08T13:07:59;14.90;44.40
3298;DHT22;1661;53.572;10.174;2024-03-08T13:10:26;15.00;44.80
3298;DHT22;1661;53.572;10.174;2024-03-08T13:12:54;15.10;45.40
3298;DHT22;1661;53.572;10.174;2024-03-08T13:15:22;15.20;42.70
3298;DHT22;1661;53.572;10.174;2024-03-08T13:17:49;15.40;43.10
3298;DHT22;1661;53.572;10.174;2024-03-08T13:20:16;15.60;44.40
3298;DHT22;1661;53.572;10.174;2024-03-08T13:22:45;15.60;40.10
3298;DHT22;1661;53.572;10.174;2024-03-08T13:25:13;15.10;39.00
3298;DHT22;1661;53.572;10.174;2024-03-08T13:27:40;15.10;40.90
3298;DHT22;1661;53.572;10.174;2024-03-08T13:30:10;15.10;41.00
3298;DHT22;1661;53.572;10.174;2024-03-08T13:32:43;15.20;41.30
3298;DHT22;1661;53.572;10.174;2024-03-08T13:35:10;15.40;41.10
3298;DHT22;1661;53.572;10.174;2024-03-08T13:37:41;15.60;41.80
3298;DHT22;1661;53.572;10.174;2024-03-08T13:40:09;15.60;40.80
3298;DHT22;1661;53.572;10.174;2024-03-08T13:42:39;15.60;40.70
3298;DHT22;1661;53.572;10.174;2024-03-08T13:45:09;15.40;39.70
3298;DHT22;1661;53.572;10.174;2024-03-08T13:47:37;15.40;40.20
3298;DHT22;1661;53.572;10.174;2024-03-08T13:50:08;15.20;40.50
3298;DHT22;1661;53.572;10.174;2024-03-08T13:52:37;15.10;40.60
3298;DHT22;1661;53.572;10.174;2024-03-08T13:55:07;15.00;41.10
3298;DHT22;1661;53.572;10.174;2024-03-08T13:57:34;14.80;40.30
3298;DHT22;1661;53.572;10.174;2024-03-08T14:00:02;14.70;40.40
3298;DHT22;1661;53.572;10.174;2024-03-08T14:02:32;14.60;39.90
3298;DHT22;1661;53.572;10.174;2024-03-08T14:04:59;14.40;41.90
3298;DHT22;1661;53.572;10.174;2024-03-08T14:07:27;14.40;40.70
3298;DHT22;1661;53.572;10.174;2024-03-08T14:09:54;14.40;41.90
3298;DHT22;1661;53.572;10.174;2024-03-08T14:12:21;14.40;40.70
3298;DHT22;1661;53.572;10.174;2024-03-08T14:14:49;14.40;40.30
3298;DHT22;1661;53.572;10.174;2024-03-08T14:17:16;14.30;42.70
3298;DHT22;1661;53.572;10.174;2024-03-08T14:19:45;14.30;42.80
3298;DHT22;1661;53.572;10.174;2024-03-08T14:22:11;14.30;39.90
3298;DHT22;1661;53.572;10.174;2024-03-08T14:24:43;14.40;42.10
3298;DHT22;1661;53.572;10.174;2024-03-08T14:27:10;14.50;44.00
3298;DHT22;1661;53.572;10.174;2024-03-08T14:29:38;14.60;42.50
3298;DHT22;1661;53.572;10.174;2024-03-08T14:32:05;14.60;40.80
3298;DHT22;1661;53.572;10.174;2024-03-08T14:34:32;14.40;40.30
3298;DHT22;1661;53.572;10.174;2024-03-08T14:37:01;14.40;41.80
3298;DHT22;1661;53.572;10.174;2024-03-08T14:39:31;14.50;43.40
3298;DHT22;1661;53.572;10.174;2024-03-08T14:41:59;14.50;42.40
3298;DHT22;1661;53.572;10.174;2024-03-08T14:44:27;14.60;43.80
3298;DHT22;1661;53.572;10.174;2024-03-08T14:46:55;14.70;44.90
3298;DHT22;1661;53.572;10.174;2024-03-08T14:49:23;14.70;44.10
3298;DHT22;1661;53.572;10.174;2024-03-08T14:51:51;14.80;43.90
3298;DHT22;1661;53.572;10.174;2024-03-08T14:54:20;14.80;41.30
3298;DHT22;1661;53.572;10.174;2024-03-08T14:56:48;14.70;42.80
3298;DHT22;1661;53.572;10.174;2024-03-08T14:59:16;14.70;45.90
3298;DHT22;1661;53.572;10.174;2024-03-08T15:01:45;14.70;44.60
3298;DHT22;1661;53.572;10.174;2024-03-08T15:04:11;14.60;43.80
3298;DHT22;1661;53.572;10.174;2024-03-08T15:06:38;14.40;44.40
3298;DHT22;1661;53.572;10.174;2024-03-08T15:09:05;14.40;44.80
3298;DHT22;1661;53.572;10.174;2024-03-08T15:11:44;14.40;46.20
3298;DHT22;1661;53.572;10.174;2024-03-08T15:14:11;14.50;45.70
3298;DHT22;1661;53.572;10.174;2024-03-08T15:16:39;14.60;44.90
3298;DHT22;1661;53.572;10.174;2024-03-08T15:19:06;14.60;43.40
3298;DHT22;1661;53.572;10.174;2024-03-08T15:21:33;14.40;43.10
3298;DHT22;1661;53.572;10.174;2024-03-08T15:24:00;14.30;43.20
3298;DHT22;1661;53.572;10.174;2024-03-08T15:26:28;14.20;43.90
3298;DHT22;1661;53.572;10.174;2024-03-08T15:28:57;14.10;44.90
3298;DHT22;1661;53.572;10.174;2024-03-08T15:31:24;14.10;44.40
3298;DHT22;1661;53.572;10.174;2024-03-08T15:33:51;14.10;45.80
3298;DHT22;1661;53.572;10.174;2024-03-08T15:36:25;14.10;46.20
3298;DHT22;1661;53.572;10.174;2024-03-08T15:38:56;13.90;45.90
3298;DHT22;1661;53.572;10.174;2024-03-08T15:41:23;13.80;45.90
3298;DHT22;1661;53.572;10.174;2024-03-08T15:43:52;13.70;45.60
3298;DHT22;1661;53.572;10.174;2024-03-08T15:46:21;13.70;47.20
3298;DHT22;1661;53.572;10.174;2024-03-08T15:48:50;13.70;46.40
3298;DHT22;1661;53.572;10.174;2024-03-08T15:51:20;13.70;46.20
3298;DHT22;1661;53.572;10.174;2024-03-08T15:53:47;13.50;46.30
3298;DHT22;1661;53.572;10.174;2024-03-08T15:56:19;13.30;46.40
3298;DHT22;1661;53.572;10.174;2024-03-08T15:58:46;13.20;46.20
3298;DHT22;1661;53.572;10.174;2024-03-08T16:01:13;13.00;48.00
3298;DHT22;1661;53.572;10.174;2024-03-08T16:03:44;13.00;48.00